createdAt,value
2018-12-24T00:07:40.125Z,95.60
2018-12-24T00:28:21.931Z,95.70
2018-12-24T00:31:03.473Z,95.80
2018-12-24T00:33:44.964Z,95.90
2018-12-24T01:09:34.100Z,95.60
2018-12-24T01:27:39.876Z,95.40
2018-12-24T01:36:10.653Z,95.60
2018-12-24T02:08:44.573Z,94.90
2018-12-24T02:17:24.773Z,95.20
2018-12-24T02:37:46.826Z,95.20
2018-12-24T02:57:15.185Z,95.60
2018-12-24T02:59:45.043Z,95.70
2018-12-24T03:02:14.840Z,95.80
2018-12-24T03:04:44.869Z,95.90
2018-12-24T03:07:17.729Z,95.80
2018-12-24T03:09:47.500Z,95.90
2018-12-24T03:12:17.263Z,95.80
2018-12-24T03:14:47.046Z,95.80
2018-12-24T03:17:16.808Z,95.80
2018-12-24T03:19:46.678Z,96.10
2018-12-24T03:22:16.448Z,95.80
2018-12-24T03:24:46.234Z,95.70
2018-12-24T03:27:16.009Z,95.80
2018-12-24T03:29:45.793Z,95.70
2018-12-24T03:32:15.899Z,95.70
2018-12-24T03:34:45.654Z,95.70
2018-12-24T03:37:15.433Z,95.70
2018-12-24T03:39:45.466Z,95.60
2018-12-24T03:42:15.233Z,95.70
2018-12-24T03:44:44.999Z,95.80
2018-12-24T03:47:27.329Z,95.80
2018-12-24T03:49:57.105Z,95.90
2018-12-24T03:52:26.913Z,96.00
2018-12-24T03:54:56.925Z,96.30
2018-12-24T03:57:26.676Z,96.00
2018-12-24T03:59:56.478Z,96.10
2018-12-24T04:02:26.276Z,96.10
2018-12-24T04:04:56.043Z,95.80
2018-12-24T04:07:25.809Z,95.90
2018-12-24T04:09:55.793Z,96.20
2018-12-24T04:12:25.636Z,95.80
2018-12-24T04:15:01.537Z,95.80
2018-12-24T04:17:37.409Z,95.80
2018-12-24T04:20:07.225Z,95.70
2018-12-24T04:22:43.222Z,95.80
2018-12-24T04:25:15.682Z,95.70
2018-12-24T04:27:48.846Z,95.90
2018-12-24T04:30:22.051Z,95.90
2018-12-24T04:32:51.822Z,95.70
2018-12-24T04:35:24.709Z,95.70
2018-12-24T04:37:54.788Z,95.70
2018-12-24T04:40:24.558Z,95.80
2018-12-24T04:45:23.708Z,95.70
2018-12-24T04:47:53.724Z,95.60
2018-12-24T04:50:23.753Z,95.70
2018-12-24T04:52:53.486Z,95.40
2018-12-24T04:55:23.752Z,95.70
2018-12-24T04:57:53.561Z,95.40
2018-12-24T05:00:35.425Z,95.40
2018-12-24T05:03:05.193Z,95.80
2018-12-24T05:05:38.302Z,95.30
2018-12-24T05:08:11.120Z,95.10
2018-12-24T05:10:40.887Z,95.20
2018-12-24T05:13:10.680Z,95.30
2018-12-24T05:15:40.446Z,95.20
2018-12-24T05:18:10.219Z,95.30
2018-12-24T05:20:40.029Z,95.40
2018-12-24T05:23:09.785Z,95.30
2018-12-24T05:25:51.724Z,95.30
2018-12-24T05:28:21.473Z,95.20
2018-12-24T05:30:51.241Z,95.40
2018-12-24T05:33:21.081Z,95.30
2018-12-24T05:35:50.850Z,95.30
2018-12-24T05:38:20.706Z,95.30
2018-12-24T05:40:50.525Z,95.40
2018-12-24T05:43:20.318Z,95.50
2018-12-24T05:45:50.103Z,95.50
2018-12-24T05:48:19.865Z,95.50
2018-12-24T05:50:49.620Z,95.30
2018-12-24T05:53:19.381Z,95.30
2018-12-24T05:55:49.188Z,95.50
2018-12-24T05:58:22.294Z,95.50
2018-12-24T06:00:52.057Z,95.40
2018-12-24T06:03:21.812Z,95.70
2018-12-24T06:05:51.572Z,95.50
2018-12-24T06:08:21.341Z,95.40
2018-12-24T06:10:51.134Z,95.60
2018-12-24T06:13:21.122Z,95.60
2018-12-24T06:15:53.908Z,95.60
2018-12-24T06:20:53.791Z,95.80
2018-12-24T06:23:23.676Z,96.10
2018-12-24T06:28:37.878Z,95.80
2018-12-24T06:33:37.068Z,95.80
2018-12-24T06:36:07.084Z,95.70
2018-12-24T06:38:36.870Z,95.70
2018-12-24T06:41:07.705Z,95.80
2018-12-24T06:43:37.561Z,95.80
2018-12-24T06:46:16.551Z,95.80
2018-12-24T06:48:46.384Z,95.70
2018-12-24T06:51:16.183Z,95.80
2018-12-24T06:53:52.257Z,96.10
2018-12-24T06:56:22.064Z,95.70
2018-12-24T06:58:51.852Z,95.80
2018-12-24T07:01:21.596Z,96.10
2018-12-24T07:03:51.431Z,95.70
2018-12-24T07:06:21.244Z,95.00
2018-12-24T07:08:51.026Z,95.10
2018-12-24T07:11:22.865Z,95.30
2018-12-24T07:13:58.861Z,95.30
2018-12-24T07:16:28.636Z,95.30
2018-12-24T07:19:01.517Z,95.10
2018-12-24T07:21:31.295Z,95.00
2018-12-24T07:24:01.056Z,95.00
2018-12-24T07:26:31.078Z,95.00
2018-12-24T07:29:00.828Z,95.00
2018-12-24T07:31:39.941Z,95.30
2018-12-24T07:34:12.700Z,95.30
2018-12-24T07:36:52.037Z,94.70
2018-12-24T07:39:21.952Z,94.80
2018-12-24T07:41:54.450Z,94.60
2018-12-24T07:44:24.552Z,94.80
2018-12-24T07:46:57.106Z,95.90
2018-12-24T07:49:26.913Z,94.80
2018-12-24T07:51:56.689Z,94.80
2018-12-24T07:54:38.698Z,94.80
2018-12-24T07:57:08.495Z,94.70
2018-12-24T07:59:38.369Z,94.60
2018-12-24T08:02:08.153Z,95.00
2018-12-24T08:04:37.922Z,94.70
2018-12-24T08:07:07.716Z,94.60
2018-12-24T08:12:09.531Z,94.70
2018-12-24T08:14:39.702Z,94.50
2018-12-24T08:19:41.704Z,94.60
2018-12-24T08:22:11.474Z,94.40
2018-12-24T08:24:41.257Z,94.30
2018-12-24T08:27:11.669Z,94.30
2018-12-24T08:29:44.620Z,94.50
2018-12-24T08:32:15.030Z,94.30
2018-12-24T08:34:48.258Z,94.30
2018-12-24T08:37:18.760Z,94.40
2018-12-24T08:39:52.770Z,94.50
2018-12-24T08:42:23.302Z,94.30
2018-12-24T08:44:53.842Z,94.20
2018-12-24T08:47:24.329Z,94.30
2018-12-24T08:49:54.861Z,94.30
2018-12-24T08:52:28.603Z,94.30
2018-12-24T08:55:02.649Z,94.30
2018-12-24T09:07:23.342Z,93.90
2018-12-24T09:10:04.874Z,93.80
2018-12-24T09:18:51.905Z,93.50
2018-12-24T09:39:50.999Z,92.90
2018-12-24T09:48:50.544Z,92.70
2018-12-24T10:01:41.114Z,92.20
2018-12-24T10:07:33.404Z,91.70
2018-12-24T11:14:19.762Z,83.90
2018-12-24T11:26:43.860Z,81.00
2018-12-24T11:35:14.503Z,79.60
2018-12-24T12:13:51.102Z,76.30
2018-12-24T12:35:15.465Z,73.00
2018-12-24T13:05:52.356Z,71.80
2018-12-24T13:08:21.944Z,71.80
2018-12-24T13:38:25.776Z,73.60
2018-12-24T13:56:08.797Z,72.80
2018-12-24T14:38:18.240Z,71.10
2018-12-24T14:59:09.389Z,72.80
2018-12-24T15:01:41.913Z,74.00
2018-12-24T15:04:13.984Z,75.60
2018-12-24T15:06:46.516Z,77.50
2018-12-24T15:09:15.875Z,78.10
2018-12-24T15:11:45.224Z,79.10
2018-12-24T15:14:14.745Z,79.70
2018-12-24T15:16:47.453Z,80.70
2018-12-24T15:19:16.808Z,81.40
2018-12-24T15:24:15.008Z,81.70
2018-12-24T15:26:56.443Z,82.70
2018-12-24T15:29:29.128Z,83.60
2018-12-24T15:32:01.153Z,84.30
2018-12-24T15:34:30.500Z,84.80
2018-12-24T15:36:59.848Z,84.80
2018-12-24T15:39:29.576Z,85.50
2018-12-24T15:41:58.948Z,86.20
2018-12-24T15:44:30.920Z,86.70
2018-12-24T15:47:00.277Z,87.10
2018-12-24T15:49:41.800Z,87.50
2018-12-24T15:52:29.352Z,87.50
2018-12-24T15:54:58.688Z,88.50
2018-12-24T15:57:28.285Z,88.70
2018-12-24T15:59:57.632Z,88.40
2018-12-24T16:02:45.285Z,89.60
2018-12-24T16:05:30.040Z,89.90
2018-12-24T16:07:59.392Z,90.00
2018-12-24T16:10:28.825Z,90.10
2018-12-24T16:15:30.960Z,90.20
2018-12-24T16:18:00.375Z,90.60
2018-12-24T16:20:35.833Z,90.50
2018-12-24T16:23:07.853Z,90.80
2018-12-24T16:25:52.308Z,90.90
2018-12-24T16:28:40.016Z,91.00
2018-12-24T16:31:09.360Z,91.20
2018-12-24T16:36:10.439Z,91.50
2018-12-24T16:38:58.584Z,91.40
2018-12-24T16:41:30.625Z,91.70
2018-12-24T16:43:59.978Z,91.80
2018-12-24T16:46:32.049Z,91.90
2018-12-24T16:49:01.408Z,92.10
2018-12-24T16:51:30.748Z,92.20
2018-12-24T16:54:00.104Z,92.20
2018-12-24T16:56:29.436Z,92.30
2018-12-24T16:58:58.848Z,92.30
2018-12-24T17:01:28.388Z,92.20
2018-12-24T17:03:57.938Z,92.40
2018-12-24T17:06:39.452Z,92.50
2018-12-24T17:09:12.181Z,92.50
2018-12-24T17:11:41.784Z,92.70
2018-12-24T17:14:14.233Z,92.80
2018-12-24T17:16:43.580Z,93.20
2018-12-24T17:19:13.072Z,92.80
2018-12-24T17:21:42.412Z,92.90
2018-12-24T17:24:11.761Z,93.30
2018-12-24T17:26:41.104Z,93.30
2018-12-24T17:29:10.605Z,93.10
2018-12-24T17:31:40.144Z,93.10
2018-12-24T17:34:09.638Z,93.20
2018-12-24T17:36:39.121Z,93.70
2018-12-24T17:39:11.768Z,93.50
2018-12-24T17:41:41.281Z,93.60
2018-12-24T17:44:26.328Z,93.90
2018-12-24T17:46:55.916Z,94.20
2018-12-24T17:49:40.720Z,94.20
2018-12-24T17:52:10.209Z,94.00
2018-12-24T17:54:39.711Z,94.10
2018-12-24T17:57:09.047Z,94.30
2018-12-24T17:59:47.916Z,94.50
2018-12-24T18:02:17.265Z,94.80
2018-12-24T18:04:46.600Z,94.30
2018-12-24T18:07:16.219Z,94.20
2018-12-24T18:09:45.816Z,94.70
2018-12-24T18:12:15.172Z,94.40
2018-12-24T18:14:47.886Z,94.00
2018-12-24T18:17:29.409Z,93.80
2018-12-24T18:19:58.740Z,93.90
2018-12-24T18:22:28.088Z,93.80
2018-12-24T18:25:00.810Z,93.70
2018-12-24T18:30:08.509Z,93.70
2018-12-24T18:32:37.857Z,93.90
2018-12-24T18:35:07.204Z,94.30
2018-12-24T18:40:08.061Z,94.30
2018-12-24T18:45:11.964Z,93.60
2018-12-24T18:50:12.888Z,93.80
2018-12-24T18:55:11.098Z,93.60
2018-12-24T18:57:40.482Z,93.60
2018-12-24T19:00:13.657Z,93.00
2018-12-24T19:02:43.044Z,92.90
2018-12-24T19:05:27.614Z,93.20
2018-12-24T19:07:56.940Z,93.30
2018-12-24T19:10:26.285Z,93.60
2018-12-24T19:12:58.841Z,93.50
2018-12-24T19:15:30.888Z,93.70
2018-12-24T19:18:00.271Z,94.10
2018-12-24T19:20:29.869Z,94.10
2018-12-24T19:22:59.208Z,94.00
2018-12-24T19:25:31.729Z,93.90
2018-12-24T19:28:01.577Z,94.20
2018-12-24T19:30:40.574Z,94.30
2018-12-24T19:33:12.996Z,94.30
2018-12-24T19:35:54.597Z,94.60
2018-12-24T19:38:23.933Z,94.30
2018-12-24T19:40:53.268Z,94.30
2018-12-24T19:43:25.881Z,94.40
2018-12-24T19:46:04.492Z,94.20
2018-12-24T19:48:34.144Z,94.50
2018-12-24T19:51:15.981Z,94.30
2018-12-24T19:53:48.628Z,94.00
2018-12-24T19:56:27.192Z,94.30
2018-12-24T19:58:56.516Z,94.40
2018-12-24T20:01:26.113Z,94.40
2018-12-24T20:04:00.588Z,94.20
2018-12-24T20:09:06.335Z,93.90
2018-12-24T20:11:38.376Z,93.60
2018-12-24T20:14:07.717Z,93.40
2018-12-24T20:16:46.432Z,93.20
2018-12-24T20:21:47.838Z,93.50
2018-12-24T20:24:17.193Z,93.90
2018-12-24T20:29:21.689Z,93.80
2018-12-24T20:31:51.030Z,93.90
2018-12-24T20:34:20.431Z,93.70
2018-12-24T20:36:49.825Z,93.80
2018-12-24T20:39:25.301Z,94.00
2018-12-24T20:41:58.017Z,94.10
2018-12-24T20:44:27.364Z,94.00
2018-12-24T20:46:57.200Z,93.50
2018-12-24T20:49:35.785Z,93.30
2018-12-24T20:52:05.245Z,93.60
2018-12-24T20:54:34.821Z,93.50
2018-12-24T20:57:04.172Z,93.80
2018-12-24T20:59:33.504Z,93.30
2018-12-24T21:05:06.874Z,93.60
2018-12-24T21:13:58.493Z,92.60
2018-12-24T22:08:11.090Z,93.10
2018-12-24T22:13:54.008Z,93.20
2018-12-24T22:16:35.329Z,93.10
2018-12-24T22:29:58.965Z,93.20
2018-12-24T23:46:40.263Z,93.60
